createdAt,value
2019-03-13T00:01:59.429Z,33.60
2019-03-13T00:04:30.860Z,33.47
2019-03-13T00:07:03.987Z,39.73
2019-03-13T00:09:35.256Z,35.70
2019-03-13T00:12:08.343Z,35.67
2019-03-13T00:14:39.954Z,39.47
2019-03-13T00:17:11.938Z,39.70
2019-03-13T00:19:43.682Z,32.97
2019-03-13T00:22:15.561Z,43.23
2019-03-13T00:24:47.312Z,37.53
2019-03-13T00:27:18.964Z,37.63
2019-03-13T00:29:50.494Z,35.47
2019-03-13T00:32:22.316Z,37.00
2019-03-13T00:34:55.026Z,39.97
2019-03-13T00:37:26.531Z,35.33
2019-03-13T00:39:58.467Z,39.53
2019-03-13T00:42:31.183Z,39.93
2019-03-13T00:45:04.633Z,40.83
2019-03-13T00:47:38.550Z,40.73
2019-03-13T00:50:10.033Z,39.33
2019-03-13T00:52:41.501Z,41.93
2019-03-13T00:55:12.790Z,38.13
2019-03-13T00:57:44.113Z,39.40
2019-03-13T01:00:21.408Z,37.83
2019-03-13T01:02:53.056Z,40.93
2019-03-13T01:05:34.794Z,40.13
2019-03-13T01:08:06.137Z,40.80
2019-03-13T01:10:38.640Z,43.40
2019-03-13T01:13:10.355Z,46.20
2019-03-13T01:15:41.760Z,43.93
2019-03-13T01:18:13.617Z,44.20
2019-03-13T01:20:45.090Z,37.33
2019-03-13T01:23:16.581Z,39.13
2019-03-13T01:25:48.000Z,45.50
2019-03-13T01:28:19.438Z,40.03
2019-03-13T01:31:02.184Z,42.40
2019-03-13T01:33:33.571Z,41.57
2019-03-13T01:36:04.965Z,40.40
2019-03-13T01:38:36.331Z,40.63
2019-03-13T01:41:07.990Z,38.23
2019-03-13T01:43:39.944Z,41.33
2019-03-13T01:46:11.382Z,36.93
2019-03-13T01:48:42.782Z,44.23
2019-03-13T01:51:14.092Z,37.93
2019-03-13T01:53:45.426Z,36.37
2019-03-13T01:56:17.435Z,40.63
2019-03-13T01:58:49.874Z,37.23
2019-03-13T02:01:21.273Z,40.53
2019-03-13T02:03:52.813Z,42.00
2019-03-13T02:06:25.852Z,39.33
2019-03-13T02:08:57.148Z,44.30
2019-03-13T02:11:29.706Z,45.53
2019-03-13T02:14:01.366Z,41.57
2019-03-13T02:16:33.576Z,47.27
2019-03-13T02:19:05.028Z,41.43
2019-03-13T02:21:36.443Z,43.13
2019-03-13T02:24:07.942Z,46.70
2019-03-13T02:26:39.261Z,41.50
2019-03-13T02:29:10.592Z,39.67
2019-03-13T02:31:42.010Z,43.83
2019-03-13T02:34:13.676Z,45.37
2019-03-13T02:36:45.412Z,42.67
2019-03-13T02:39:16.802Z,45.00
2019-03-13T02:41:48.212Z,44.07
2019-03-13T02:44:20.135Z,44.93
2019-03-13T02:46:51.476Z,45.17
2019-03-13T02:49:23.583Z,42.70
2019-03-13T02:51:55.019Z,45.47
2019-03-13T02:54:26.361Z,46.30
2019-03-13T02:56:58.265Z,44.70
2019-03-13T02:59:30.446Z,49.20
2019-03-13T03:02:16.690Z,43.57
2019-03-13T03:04:49.079Z,45.77
2019-03-13T03:07:21.271Z,43.80
2019-03-13T03:09:53.023Z,48.50
2019-03-13T03:12:24.661Z,41.47
2019-03-13T03:15:04.255Z,41.90
2019-03-13T03:17:35.495Z,41.27
2019-03-13T03:20:09.153Z,40.47
2019-03-13T03:22:40.455Z,41.17
2019-03-13T03:25:12.437Z,50.13
2019-03-13T03:27:43.834Z,38.90
2019-03-13T03:30:17.968Z,40.93
2019-03-13T03:32:49.310Z,44.87
2019-03-13T03:35:20.605Z,39.57
2019-03-13T03:37:52.094Z,41.30
2019-03-13T03:40:23.840Z,42.00
2019-03-13T03:42:55.537Z,39.53
2019-03-13T03:45:26.867Z,41.60
2019-03-13T03:47:58.402Z,41.10
2019-03-13T03:50:29.833Z,36.27
2019-03-13T03:53:01.328Z,35.67
2019-03-13T03:55:33.028Z,38.63
2019-03-13T03:58:04.291Z,38.87
2019-03-13T04:00:35.581Z,36.13
2019-03-13T04:03:08.052Z,37.77
2019-03-13T04:05:39.508Z,40.93
2019-03-13T04:08:10.825Z,33.33
2019-03-13T04:10:42.771Z,40.83
2019-03-13T04:13:14.072Z,37.20
2019-03-13T04:15:45.847Z,38.10
2019-03-13T04:18:18.308Z,35.00
2019-03-13T04:20:49.769Z,34.87
2019-03-13T04:23:21.277Z,32.73
2019-03-13T04:25:53.739Z,33.33
2019-03-13T04:28:24.971Z,33.20
2019-03-13T04:30:57.369Z,35.03
2019-03-13T04:33:29.468Z,36.33
2019-03-13T04:36:01.109Z,32.57
2019-03-13T04:38:32.468Z,36.60
2019-03-13T04:41:03.762Z,33.23
2019-03-13T04:43:35.096Z,36.30
2019-03-13T04:46:07.368Z,32.27
2019-03-13T04:48:39.312Z,38.07
2019-03-13T04:51:10.900Z,31.33
2019-03-13T04:53:42.231Z,31.93
2019-03-13T04:56:13.643Z,32.03
2019-03-13T04:58:45.013Z,31.77
2019-03-13T05:01:16.335Z,30.37
2019-03-13T05:03:48.121Z,30.73
2019-03-13T05:06:23.751Z,29.50
2019-03-13T05:09:16.307Z,30.43
2019-03-13T05:11:48.264Z,32.70
2019-03-13T05:14:19.780Z,35.00
2019-03-13T05:16:51.288Z,30.77
2019-03-13T05:19:22.759Z,28.60
2019-03-13T05:21:54.088Z,28.97
2019-03-13T05:24:25.469Z,29.17
2019-03-13T05:26:56.804Z,32.73
2019-03-13T05:29:28.545Z,31.00
2019-03-13T05:32:00.228Z,25.80
2019-03-13T05:34:31.626Z,31.00
2019-03-13T05:37:03.736Z,27.80
2019-03-13T05:39:35.653Z,26.77
2019-03-13T05:42:07.224Z,26.60
2019-03-13T05:44:39.311Z,26.07
2019-03-13T05:47:11.441Z,27.57
2019-03-13T05:49:43.007Z,28.43
2019-03-13T05:52:14.579Z,23.53
2019-03-13T05:54:46.153Z,26.67
2019-03-13T05:57:17.379Z,24.73
2019-03-13T05:59:48.788Z,25.07
2019-03-13T06:02:20.227Z,20.03
2019-03-13T06:04:52.496Z,27.60
2019-03-13T06:07:23.994Z,25.30
2019-03-13T06:09:56.192Z,27.97
2019-03-13T06:12:27.666Z,27.50
2019-03-13T06:14:59.363Z,25.80
2019-03-13T06:17:31.265Z,24.60
2019-03-13T06:20:02.848Z,25.07
2019-03-13T06:22:34.913Z,26.10
2019-03-13T06:25:07.726Z,25.10
2019-03-13T06:27:39.568Z,23.97
2019-03-13T06:30:12.169Z,21.57
2019-03-13T06:32:43.811Z,25.80
2019-03-13T06:35:16.860Z,25.77
2019-03-13T06:37:48.465Z,21.17
2019-03-13T06:40:20.676Z,22.07
2019-03-13T06:42:52.051Z,23.47
2019-03-13T06:45:23.919Z,22.30
2019-03-13T06:47:56.599Z,23.83
2019-03-13T06:50:28.104Z,25.77
2019-03-13T06:52:59.559Z,23.50
2019-03-13T06:55:31.019Z,24.23
2019-03-13T06:58:02.467Z,24.03
2019-03-13T07:00:51.315Z,20.27
2019-03-13T07:03:31.160Z,20.20
2019-03-13T07:06:14.054Z,21.37
2019-03-13T07:09:14.425Z,19.87
2019-03-13T07:12:05.206Z,19.93
2019-03-13T07:14:42.313Z,20.17
2019-03-13T07:17:25.149Z,20.40
2019-03-13T07:20:18.350Z,20.20
2019-03-13T07:23:08.830Z,21.63
2019-03-13T07:26:01.672Z,21.17
2019-03-13T07:28:39.253Z,25.37
2019-03-13T07:31:38.645Z,22.67
2019-03-13T07:34:26.480Z,21.20
2019-03-13T07:37:05.503Z,19.60
2019-03-13T07:39:55.899Z,18.90
2019-03-13T07:42:42.527Z,22.17
2019-03-13T07:45:32.745Z,20.13
2019-03-13T07:48:21.324Z,22.30
2019-03-13T07:51:14.712Z,23.97
2019-03-13T07:54:11.849Z,20.50
2019-03-13T07:57:02.331Z,19.67
2019-03-13T08:00:01.714Z,19.57
2019-03-13T08:02:51.977Z,21.17
2019-03-13T08:05:33.669Z,24.80
2019-03-13T08:08:27.715Z,20.37
2019-03-13T08:11:06.740Z,23.83
2019-03-13T08:14:03.605Z,21.97
2019-03-13T08:16:52.361Z,22.03
2019-03-13T08:19:37.011Z,28.80
2019-03-13T08:22:26.583Z,22.17
2019-03-13T08:25:16.957Z,24.33
2019-03-13T08:28:06.654Z,26.83
2019-03-13T08:30:51.549Z,24.07
2019-03-13T08:33:34.862Z,28.17
2019-03-13T08:36:21.997Z,28.67
2019-03-13T08:39:09.312Z,30.63
2019-03-13T08:42:00.814Z,25.30
2019-03-13T08:44:54.311Z,28.77
2019-03-13T08:47:43.665Z,24.43
2019-03-13T08:50:34.907Z,27.07
2019-03-13T08:53:31.613Z,23.93
2019-03-13T08:56:08.157Z,23.03
2019-03-13T08:58:59.571Z,23.10
2019-03-13T09:01:39.300Z,20.27
2019-03-13T09:04:32.697Z,24.83
2019-03-13T09:07:35.950Z,23.10
2019-03-13T09:10:44.552Z,23.83
2019-03-13T09:13:37.489Z,26.03
2019-03-13T09:16:19.898Z,21.97
2019-03-13T09:19:09.144Z,21.93
2019-03-13T09:21:47.456Z,20.30
2019-03-13T09:24:24.160Z,20.53
2019-03-13T09:27:17.246Z,19.43
2019-03-13T09:30:01.267Z,18.90
2019-03-13T09:32:57.153Z,20.97
2019-03-13T09:35:45.883Z,19.70
2019-03-13T09:38:28.046Z,21.50
2019-03-13T09:41:27.259Z,20.17
2019-03-13T09:44:12.693Z,19.10
2019-03-13T09:47:18.581Z,18.27
2019-03-13T09:50:15.090Z,13.93
2019-03-13T09:53:11.341Z,15.43
2019-03-13T09:56:01.634Z,14.80
2019-03-13T09:58:56.362Z,17.73
2019-03-13T10:01:34.760Z,15.67
2019-03-13T10:04:25.785Z,16.27
2019-03-13T10:07:10.074Z,16.97
2019-03-13T10:09:59.224Z,14.10
2019-03-13T10:12:37.381Z,13.83
2019-03-13T10:15:22.185Z,14.43
2019-03-13T10:18:02.513Z,11.57
2019-03-13T10:20:51.439Z,12.90
2019-03-13T10:23:41.977Z,13.63
2019-03-13T10:26:41.557Z,13.33
2019-03-13T10:29:33.883Z,12.00
2019-03-13T10:32:25.428Z,11.60
2019-03-13T10:35:17.003Z,12.03
2019-03-13T10:38:13.958Z,12.30
2019-03-13T10:41:00.015Z,12.33
2019-03-13T10:44:02.495Z,13.73
2019-03-13T10:46:58.711Z,11.60
2019-03-13T10:49:41.242Z,10.53
2019-03-13T10:52:31.571Z,13.13
2019-03-13T10:55:21.465Z,10.77
2019-03-13T10:58:12.273Z,12.40
2019-03-13T11:01:01.286Z,13.00
2019-03-13T11:03:54.929Z,9.10
2019-03-13T11:06:55.206Z,11.20
2019-03-13T11:09:36.078Z,13.03
2019-03-13T11:12:34.425Z,8.37
2019-03-13T11:15:28.437Z,8.20
2019-03-13T11:18:18.334Z,8.33
2019-03-13T11:21:09.040Z,12.20
2019-03-13T11:24:11.693Z,9.23
2019-03-13T11:27:02.165Z,6.43
2019-03-13T11:29:56.680Z,8.37
2019-03-13T11:32:47.764Z,10.77
2019-03-13T11:35:37.027Z,6.10
2019-03-13T11:38:36.448Z,7.83
2019-03-13T11:41:38.921Z,7.57
2019-03-13T11:44:33.583Z,8.10
2019-03-13T11:47:14.447Z,10.97
2019-03-13T11:49:57.064Z,10.40
2019-03-13T11:52:56.851Z,6.37
2019-03-13T11:55:53.535Z,6.93
2019-03-13T11:58:33.847Z,6.27
2019-03-13T12:01:24.484Z,6.87
2019-03-13T12:04:17.662Z,5.07
2019-03-13T12:07:06.804Z,6.10
2019-03-13T12:09:56.266Z,10.27
2019-03-13T12:12:44.650Z,11.17
2019-03-13T12:15:31.731Z,7.17
2019-03-13T12:18:08.249Z,5.53
2019-03-13T12:20:59.606Z,14.93
2019-03-13T12:23:48.709Z,14.03
2019-03-13T12:26:37.509Z,11.03
2019-03-13T12:29:33.847Z,6.77
2019-03-13T12:32:23.536Z,9.00
2019-03-13T12:35:27.185Z,15.43
2019-03-13T12:38:15.854Z,11.80
2019-03-13T12:40:59.913Z,8.33
2019-03-13T12:43:43.778Z,11.13
2019-03-13T12:46:45.753Z,8.10
2019-03-13T12:49:24.048Z,7.73
2019-03-13T12:52:17.563Z,9.90
2019-03-13T12:55:17.753Z,36.13
2019-03-13T12:58:21.044Z,5.10
2019-03-13T13:01:10.028Z,19.30
2019-03-13T13:04:09.823Z,7.23
2019-03-13T13:07:12.435Z,5.97
2019-03-13T13:09:56.438Z,8.43
2019-03-13T13:12:51.637Z,19.67
2019-03-13T13:15:49.095Z,8.63
2019-03-13T13:18:48.378Z,15.53
2019-03-13T13:21:20.867Z,18.30
2019-03-13T13:23:52.295Z,14.83
2019-03-13T13:26:23.625Z,15.53
2019-03-13T13:28:55.520Z,12.37
2019-03-13T13:31:27.175Z,11.50
2019-03-13T13:33:58.489Z,11.07
2019-03-13T13:36:30.351Z,8.83
2019-03-13T13:39:02.717Z,17.33
2019-03-13T13:41:36.281Z,15.43
2019-03-13T13:44:07.717Z,16.17
2019-03-13T13:46:40.758Z,11.90
2019-03-13T13:49:12.907Z,14.23
2019-03-13T13:51:44.758Z,11.17
2019-03-13T13:54:16.529Z,14.10
2019-03-13T13:56:49.027Z,8.90
2019-03-13T13:59:20.538Z,16.23
2019-03-13T14:01:53.594Z,21.63
2019-03-13T14:04:25.416Z,8.87
2019-03-13T14:06:57.905Z,7.40
2019-03-13T14:09:29.704Z,8.30
2019-03-13T14:12:01.479Z,13.83
2019-03-13T14:14:33.051Z,8.17
2019-03-13T14:17:05.317Z,9.70
2019-03-13T14:19:37.941Z,8.10
2019-03-13T14:22:09.945Z,15.87
2019-03-13T14:24:41.670Z,19.73
2019-03-13T14:27:15.084Z,15.23
2019-03-13T14:29:47.435Z,8.90
2019-03-13T14:32:19.912Z,9.07
2019-03-13T14:34:51.271Z,9.93
2019-03-13T14:37:22.833Z,9.57
2019-03-13T14:39:54.188Z,10.20
2019-03-13T14:42:25.599Z,16.10
2019-03-13T14:44:59.914Z,13.53
2019-03-13T14:47:31.700Z,23.07
2019-03-13T14:50:03.035Z,11.40
2019-03-13T14:52:34.447Z,8.63
2019-03-13T14:55:06.256Z,12.80
2019-03-13T14:57:37.695Z,17.87
2019-03-13T15:00:13.297Z,10.97
2019-03-13T15:02:44.769Z,12.97
2019-03-13T15:05:17.006Z,12.37
2019-03-13T15:07:48.419Z,10.57
2019-03-13T15:10:20.716Z,12.80
2019-03-13T15:12:52.235Z,10.37
2019-03-13T15:15:23.702Z,8.87
2019-03-13T15:17:56.408Z,10.23
2019-03-13T15:20:27.922Z,10.23
2019-03-13T15:23:00.622Z,8.73
2019-03-13T15:25:32.892Z,8.37
2019-03-13T15:28:04.711Z,8.73
2019-03-13T15:30:37.041Z,11.33
2019-03-13T15:33:09.199Z,11.13
2019-03-13T15:35:41.321Z,9.83
2019-03-13T15:38:12.832Z,9.70
2019-03-13T15:40:44.148Z,8.70
2019-03-13T15:43:15.516Z,7.93
2019-03-13T15:45:47.093Z,9.10
2019-03-13T15:48:18.417Z,12.10
2019-03-13T15:50:50.003Z,9.37
2019-03-13T15:53:21.517Z,7.67
2019-03-13T15:55:52.978Z,10.33
2019-03-13T15:58:24.463Z,10.07
2019-03-13T16:00:55.860Z,8.73
2019-03-13T16:03:27.206Z,9.90
2019-03-13T16:05:58.752Z,10.23
2019-03-13T16:08:31.211Z,10.40
2019-03-13T16:11:02.617Z,11.67
2019-03-13T16:13:34.031Z,10.13
2019-03-13T16:16:06.171Z,11.03
2019-03-13T16:18:37.725Z,10.60
2019-03-13T16:21:09.395Z,11.20
2019-03-13T16:23:40.959Z,9.00
2019-03-13T16:26:12.394Z,9.53
2019-03-13T16:28:44.253Z,7.73
2019-03-13T16:31:15.661Z,9.63
2019-03-13T16:33:47.100Z,12.13
2019-03-13T16:36:18.428Z,7.67
2019-03-13T16:38:49.807Z,6.20
2019-03-13T16:41:21.237Z,8.93
2019-03-13T16:43:52.658Z,6.83
2019-03-13T16:46:24.552Z,10.07
2019-03-13T16:48:56.171Z,12.57
2019-03-13T16:51:27.593Z,10.03
2019-03-13T16:53:59.399Z,7.10
2019-03-13T16:56:30.787Z,8.97
2019-03-13T16:59:02.654Z,9.10
2019-03-13T17:01:35.011Z,9.73
2019-03-13T17:04:06.951Z,9.23
2019-03-13T17:06:38.830Z,9.20
2019-03-13T17:09:10.930Z,11.30
2019-03-13T17:11:43.941Z,9.87
2019-03-13T17:14:15.344Z,9.03
2019-03-13T17:16:47.078Z,7.13
2019-03-13T17:19:18.512Z,7.50
2019-03-13T17:21:49.940Z,8.63
2019-03-13T17:24:21.425Z,8.47
2019-03-13T17:26:52.921Z,12.27
2019-03-13T17:29:24.956Z,9.10
2019-03-13T17:31:56.636Z,10.23
2019-03-13T17:34:30.399Z,8.37
2019-03-13T17:37:01.367Z,6.13
2019-03-13T17:39:34.137Z,8.27
2019-03-13T17:42:05.583Z,8.17
2019-03-13T17:44:36.905Z,10.87
2019-03-13T17:47:08.246Z,13.03
2019-03-13T17:49:39.542Z,11.20
2019-03-13T17:52:11.910Z,12.03
2019-03-13T17:54:43.396Z,12.60
2019-03-13T17:57:14.964Z,12.70
2019-03-13T17:59:47.079Z,14.07
2019-03-13T18:02:19.350Z,10.80
2019-03-13T18:04:51.747Z,9.93
2019-03-13T18:07:23.258Z,10.47
2019-03-13T18:09:54.516Z,9.90
2019-03-13T18:12:26.027Z,10.20
2019-03-13T18:14:57.385Z,12.13
2019-03-13T18:17:29.097Z,12.97
2019-03-13T18:20:01.076Z,17.70
2019-03-13T18:22:34.754Z,13.30
2019-03-13T18:25:06.447Z,10.20
2019-03-13T18:27:38.262Z,14.47
2019-03-13T18:30:13.178Z,12.67
2019-03-13T18:32:44.567Z,12.13
2019-03-13T18:35:16.224Z,9.43
2019-03-13T18:37:47.842Z,11.90
2019-03-13T18:40:20.840Z,10.00
2019-03-13T18:42:53.593Z,9.27
2019-03-13T18:45:26.249Z,9.30
2019-03-13T18:47:57.825Z,9.67
2019-03-13T18:50:30.086Z,9.43
2019-03-13T18:53:01.675Z,8.10
2019-03-13T18:55:33.301Z,9.80
2019-03-13T18:58:04.781Z,9.33
2019-03-13T19:00:36.254Z,14.30
2019-03-13T19:03:08.393Z,10.27
2019-03-13T19:05:39.769Z,10.97
2019-03-13T19:08:11.185Z,10.17
2019-03-13T19:10:43.442Z,10.80
2019-03-13T19:13:15.327Z,11.63
2019-03-13T19:15:47.049Z,13.10
2019-03-13T19:18:18.384Z,8.50
2019-03-13T19:20:53.747Z,10.93
2019-03-13T19:23:23.935Z,10.67
2019-03-13T19:25:56.065Z,11.90
2019-03-13T19:28:27.533Z,9.90
2019-03-13T19:30:58.969Z,10.87
2019-03-13T19:33:30.311Z,13.33
2019-03-13T19:36:01.754Z,10.77
2019-03-13T19:38:33.105Z,10.37
2019-03-13T19:41:08.520Z,10.23
2019-03-13T19:43:38.571Z,12.33
2019-03-13T19:46:10.077Z,11.93
2019-03-13T19:48:42.816Z,10.93
2019-03-13T19:51:14.190Z,15.70
2019-03-13T19:53:45.731Z,10.70
2019-03-13T19:56:18.103Z,12.93
2019-03-13T19:58:49.625Z,10.87
2019-03-13T20:01:21.975Z,10.23
2019-03-13T20:03:55.818Z,9.00
2019-03-13T20:06:27.534Z,14.30
2019-03-13T20:08:59.755Z,10.53
2019-03-13T20:11:32.050Z,11.50
2019-03-13T20:14:03.909Z,12.33
2019-03-13T20:16:35.287Z,13.60
2019-03-13T20:19:07.931Z,11.23
2019-03-13T20:21:39.325Z,11.50
2019-03-13T20:24:10.763Z,11.77
2019-03-13T20:26:42.450Z,12.37
2019-03-13T20:29:13.888Z,8.90
2019-03-13T20:31:45.330Z,13.03
2019-03-13T20:34:16.741Z,12.60
2019-03-13T20:36:48.187Z,14.30
2019-03-13T20:39:20.025Z,13.50
2019-03-13T20:41:54.140Z,13.77
2019-03-13T20:44:24.731Z,13.73
2019-03-13T20:46:56.673Z,14.30
2019-03-13T20:49:28.193Z,15.60
2019-03-13T20:51:59.999Z,12.93
2019-03-13T20:54:31.839Z,11.53
2019-03-13T20:57:03.428Z,14.17
2019-03-13T20:59:34.930Z,12.47
2019-03-13T21:02:06.734Z,14.33
2019-03-13T21:04:38.197Z,16.23
2019-03-13T21:07:09.707Z,16.17
2019-03-13T21:09:41.101Z,14.27
2019-03-13T21:12:14.081Z,13.20
2019-03-13T21:14:45.514Z,11.77
2019-03-13T21:17:16.958Z,16.57
2019-03-13T21:19:48.417Z,12.47
2019-03-13T21:22:19.988Z,15.00
2019-03-13T21:24:51.267Z,9.23
2019-03-13T21:27:22.913Z,17.23
2019-03-13T21:29:54.374Z,11.63
2019-03-13T21:32:25.707Z,13.90
2019-03-13T21:34:57.270Z,12.13
2019-03-13T21:37:28.731Z,11.67
2019-03-13T21:40:00.526Z,14.10
2019-03-13T21:42:33.824Z,14.07
2019-03-13T21:45:05.445Z,15.60
2019-03-13T21:47:38.850Z,12.93
2019-03-13T21:50:13.394Z,15.87
2019-03-13T21:52:45.261Z,14.03
2019-03-13T21:55:17.414Z,17.03
2019-03-13T21:57:52.280Z,12.13
2019-03-13T22:00:25.022Z,12.47
2019-03-13T22:02:57.544Z,15.37
2019-03-13T22:05:29.482Z,14.27
2019-03-13T22:08:01.739Z,11.47
2019-03-13T22:10:33.244Z,12.60
2019-03-13T22:13:05.389Z,17.20
2019-03-13T22:15:37.398Z,13.70
2019-03-13T22:18:09.261Z,14.73
2019-03-13T22:20:40.739Z,15.23
2019-03-13T22:23:14.053Z,14.13
2019-03-13T22:25:45.368Z,16.63
2019-03-13T22:28:16.763Z,15.70
2019-03-13T22:30:49.148Z,14.07
2019-03-13T22:33:21.313Z,14.73
2019-03-13T22:35:53.702Z,14.13
2019-03-13T22:38:25.632Z,15.10
2019-03-13T22:40:57.152Z,12.97
2019-03-13T22:43:29.595Z,16.30
2019-03-13T22:46:01.101Z,14.80
2019-03-13T22:48:32.825Z,15.77
2019-03-13T22:51:04.184Z,14.53
2019-03-13T22:53:36.030Z,13.07
2019-03-13T22:56:07.422Z,11.47
2019-03-13T22:58:38.716Z,17.63
2019-03-13T23:01:13.428Z,13.67
2019-03-13T23:03:46.315Z,12.73
2019-03-13T23:06:18.246Z,13.93
2019-03-13T23:08:51.544Z,13.23
2019-03-13T23:11:24.123Z,12.13
2019-03-13T23:13:55.513Z,11.70
2019-03-13T23:16:26.750Z,11.13
2019-03-13T23:18:58.469Z,12.43
2019-03-13T23:21:30.206Z,10.40
2019-03-13T23:24:01.811Z,13.17
2019-03-13T23:26:33.590Z,11.43
2019-03-13T23:29:05.733Z,11.73
2019-03-13T23:31:37.124Z,12.10
2019-03-13T23:34:08.413Z,9.90
2019-03-13T23:36:40.095Z,11.97
2019-03-13T23:39:13.537Z,13.97
2019-03-13T23:41:46.923Z,11.77
2019-03-13T23:44:18.709Z,14.43
2019-03-13T23:46:50.995Z,11.97
2019-03-13T23:49:22.752Z,13.27
2019-03-13T23:51:54.177Z,15.60
2019-03-13T23:54:25.778Z,12.90
2019-03-13T23:56:57.258Z,11.33
2019-03-13T23:59:29.224Z,11.43
